KAL2021 RKSI-RCTP
Flight info
| Callsign | KAL2021 |
|---|---|
| Flight time | 2h 13m |
| Altitude | 38000 |
| Route | BOPTA2Y BOPTA Z51 BEDES Y711 MUGUS Y742 SALMI B576 BAKER |
| Aircraft | B77W/H-SDE1E2E3FGHIJ2J3J4J5M1RWXY/LB1D1 |
Departure
| Time | 2026-05-04 08:52 |
|---|---|
| Airport | Incheon International Airport (RKSI) |
Arrival
| Time | 2026-05-04 11:05 |
|---|---|
| Airport | Taiwan Taoyuan International Airport (RCTP) |
| Time | Latitude | Longitude | Altitude | Speed | Heading |
|---|---|---|---|---|---|
| 2026-05-04 08:25 | 37.46471 | 126.43132 | 38 ft | 0 kts | 63° |
| 2026-05-04 08:37 | 37.46443 | 126.43063 | 36 ft | 3 kts | 63° |
| 2026-05-04 08:37 | 37.46435 | 126.43042 | 38 ft | 3 kts | 73° |
| 2026-05-04 08:37 | 37.46431 | 126.43020 | 38 ft | 3 kts | 104° |
| 2026-05-04 08:38 | 37.46438 | 126.43003 | 35 ft | 3 kts | 141° |
| 2026-05-04 08:38 | 37.46456 | 126.42989 | 36 ft | 3 kts | 154° |
| 2026-05-04 08:38 | 37.46477 | 126.42976 | 36 ft | 3 kts | 154° |
| 2026-05-04 08:40 | 37.46492 | 126.42966 | 36 ft | 0 kts | 154° |
| 2026-05-04 08:42 | 37.46476 | 126.42976 | 36 ft | 5 kts | 154° |
| 2026-05-04 08:42 | 37.46445 | 126.42996 | 33 ft | 5 kts | 155° |
| 2026-05-04 08:42 | 37.46408 | 126.43016 | 38 ft | 6 kts | 159° |
| 2026-05-04 08:42 | 37.46368 | 126.43007 | 38 ft | 6 kts | 214° |
| 2026-05-04 08:43 | 37.46340 | 126.42966 | 38 ft | 6 kts | 235° |
| 2026-05-04 08:43 | 37.46316 | 126.42921 | 38 ft | 6 kts | 235° |
| 2026-05-04 08:43 | 37.46284 | 126.42887 | 38 ft | 6 kts | 195° |
| 2026-05-04 08:43 | 37.46242 | 126.42904 | 38 ft | 7 kts | 151° |
| 2026-05-04 08:44 | 37.46201 | 126.42938 | 38 ft | 7 kts | 145° |
| 2026-05-04 08:44 | 37.46157 | 126.42977 | 38 ft | 8 kts | 144° |
| 2026-05-04 08:46 | 37.45757 | 126.43333 | 38 ft | 12 kts | 144° |
| 2026-05-04 08:46 | 37.45686 | 126.43396 | 38 ft | 13 kts | 144° |
| 2026-05-04 08:46 | 37.45612 | 126.43462 | 38 ft | 13 kts | 144° |
| 2026-05-04 08:46 | 37.45536 | 126.43530 | 38 ft | 14 kts | 144° |
| 2026-05-04 08:47 | 37.45459 | 126.43599 | 38 ft | 14 kts | 144° |
| 2026-05-04 08:47 | 37.45382 | 126.43667 | 38 ft | 14 kts | 144° |
| 2026-05-04 08:47 | 37.45305 | 126.43736 | 38 ft | 14 kts | 144° |
| 2026-05-04 08:47 | 37.45226 | 126.43806 | 38 ft | 14 kts | 144° |
| 2026-05-04 08:48 | 37.45144 | 126.43879 | 38 ft | 15 kts | 144° |
| 2026-05-04 08:48 | 37.45060 | 126.43954 | 37 ft | 15 kts | 144° |
| 2026-05-04 08:48 | 37.44974 | 126.44031 | 37 ft | 15 kts | 144° |
| 2026-05-04 08:48 | 37.44886 | 126.44109 | 37 ft | 16 kts | 144° |
| 2026-05-04 08:49 | 37.44797 | 126.44188 | 37 ft | 16 kts | 144° |
| 2026-05-04 08:50 | 37.44411 | 126.44274 | 37 ft | 9 kts | 235° |
| 2026-05-04 08:50 | 37.44379 | 126.44216 | 37 ft | 8 kts | 235° |
| 2026-05-04 08:51 | 37.44379 | 126.44150 | 37 ft | 8 kts | 295° |
| 2026-05-04 08:51 | 37.44422 | 126.44103 | 37 ft | 12 kts | 324° |
| 2026-05-04 08:51 | 37.44677 | 126.43876 | 38 ft | 87 kts | 324° |
| 2026-05-04 08:51 | 37.45394 | 126.43238 | 39 ft | 161 kts | 324° |
| 2026-05-04 08:52 | 37.46407 | 126.42369 | 550 ft | 175 kts | 321° |
| 2026-05-04 08:52 | 37.47377 | 126.41516 | 1620 ft | 165 kts | 318° |
| 2026-05-04 08:52 | 37.48195 | 126.40432 | 2240 ft | 181 kts | 308° |
| 2026-05-04 08:52 | 37.49029 | 126.39088 | 2579 ft | 210 kts | 308° |
| 2026-05-04 08:53 | 37.49935 | 126.37520 | 3028 ft | 230 kts | 296° |
| 2026-05-04 08:54 | 37.42874 | 126.29690 | 8774 ft | 302 kts | 160° |
| 2026-05-04 08:55 | 37.40893 | 126.30624 | 9681 ft | 306 kts | 160° |
| 2026-05-04 08:55 | 37.38919 | 126.31580 | 10456 ft | 313 kts | 159° |
| 2026-05-04 08:55 | 37.36816 | 126.32595 | 10793 ft | 339 kts | 159° |
| 2026-05-04 08:55 | 37.34512 | 126.33695 | 11025 ft | 368 kts | 160° |
| 2026-05-04 08:57 | 37.17154 | 126.41729 | 17218 ft | 419 kts | 160° |
| 2026-05-04 09:01 | 36.75448 | 126.60715 | 27650 ft | 487 kts | 165° |
| 2026-05-04 09:01 | 36.72241 | 126.62102 | 28240 ft | 489 kts | 168° |
| 2026-05-04 09:01 | 36.68968 | 126.63272 | 28818 ft | 490 kts | 170° |
| 2026-05-04 09:01 | 36.65663 | 126.64353 | 29403 ft | 492 kts | 171° |
| 2026-05-04 09:02 | 36.62330 | 126.65416 | 29973 ft | 495 kts | 171° |
| 2026-05-04 09:02 | 36.58987 | 126.66494 | 30439 ft | 498 kts | 171° |
| 2026-05-04 09:02 | 36.55634 | 126.67595 | 30902 ft | 499 kts | 171° |
| 2026-05-04 09:02 | 36.52289 | 126.68712 | 31487 ft | 496 kts | 171° |
| 2026-05-04 09:03 | 36.48977 | 126.69827 | 32222 ft | 491 kts | 171° |
| 2026-05-04 09:03 | 36.45703 | 126.70929 | 32931 ft | 485 kts | 172° |
| 2026-05-04 09:03 | 36.42458 | 126.72016 | 33607 ft | 481 kts | 172° |
| 2026-05-04 09:03 | 36.39237 | 126.73091 | 34196 ft | 477 kts | 173° |
| 2026-05-04 09:04 | 36.36036 | 126.74160 | 34609 ft | 477 kts | 173° |
| 2026-05-04 09:04 | 36.32828 | 126.75238 | 34947 ft | 478 kts | 173° |
| 2026-05-04 09:04 | 36.29616 | 126.76320 | 35307 ft | 478 kts | 173° |
| 2026-05-04 09:04 | 36.26408 | 126.77402 | 35674 ft | 478 kts | 173° |
| 2026-05-04 09:05 | 36.23207 | 126.78480 | 36061 ft | 477 kts | 173° |
| 2026-05-04 09:05 | 36.20007 | 126.79550 | 36420 ft | 476 kts | 175° |
| 2026-05-04 09:05 | 36.16791 | 126.80340 | 36771 ft | 466 kts | 181° |
| 2026-05-04 09:05 | 36.13582 | 126.80704 | 37120 ft | 460 kts | 186° |
| 2026-05-04 09:06 | 36.10404 | 126.80746 | 37434 ft | 454 kts | 192° |
| 2026-05-04 09:07 | 35.88300 | 126.78282 | 38083 ft | 464 kts | 194° |
| 2026-05-04 09:08 | 35.85082 | 126.77936 | 38084 ft | 465 kts | 194° |
| 2026-05-04 09:08 | 35.78636 | 126.77242 | 38082 ft | 465 kts | 194° |
| 2026-05-04 09:09 | 35.72194 | 126.76549 | 38081 ft | 464 kts | 194° |
| 2026-05-04 09:09 | 35.65771 | 126.75860 | 38077 ft | 462 kts | 194° |
| 2026-05-04 09:10 | 35.59376 | 126.75174 | 38074 ft | 460 kts | 194° |
| 2026-05-04 09:10 | 35.53007 | 126.74491 | 38083 ft | 458 kts | 194° |
| 2026-05-04 09:11 | 35.46658 | 126.73814 | 38089 ft | 457 kts | 194° |
| 2026-05-04 09:11 | 35.40327 | 126.73143 | 38076 ft | 457 kts | 194° |
| 2026-05-04 09:12 | 35.34007 | 126.72473 | 38089 ft | 455 kts | 194° |
| 2026-05-04 09:14 | 35.08825 | 126.69812 | 38091 ft | 454 kts | 194° |
| 2026-05-04 09:14 | 35.02576 | 126.69152 | 38093 ft | 453 kts | 194° |
| 2026-05-04 09:15 | 34.96296 | 126.68488 | 38091 ft | 453 kts | 194° |
| 2026-05-04 09:15 | 34.90018 | 126.67825 | 38095 ft | 452 kts | 195° |
| 2026-05-04 09:17 | 34.61881 | 126.64868 | 38089 ft | 449 kts | 195° |
| 2026-05-04 09:18 | 34.55661 | 126.64218 | 38090 ft | 448 kts | 195° |
| 2026-05-04 09:18 | 34.49456 | 126.63569 | 38096 ft | 448 kts | 195° |
| 2026-05-04 09:19 | 34.43253 | 126.62920 | 38099 ft | 447 kts | 195° |
| 2026-05-04 09:19 | 34.39143 | 126.62486 | 38108 ft | 447 kts | 195° |
| 2026-05-04 09:20 | 34.32950 | 126.61815 | 38099 ft | 447 kts | 195° |
| 2026-05-04 09:20 | 34.26765 | 126.61147 | 38100 ft | 447 kts | 195° |
| 2026-05-04 09:21 | 34.20569 | 126.60490 | 38100 ft | 447 kts | 195° |
| 2026-05-04 09:21 | 34.14369 | 126.59846 | 38099 ft | 447 kts | 195° |
| 2026-05-04 09:22 | 34.08185 | 126.59204 | 38107 ft | 446 kts | 195° |
| 2026-05-04 09:22 | 34.01995 | 126.58559 | 38109 ft | 446 kts | 195° |
| 2026-05-04 09:23 | 33.95811 | 126.57916 | 38105 ft | 446 kts | 195° |
| 2026-05-04 09:23 | 33.89747 | 126.57286 | 38105 ft | 446 kts | 195° |
| 2026-05-04 09:25 | 33.69822 | 126.50504 | 38124 ft | 427 kts | 209° |
| 2026-05-04 09:25 | 33.67030 | 126.49285 | 38126 ft | 427 kts | 209° |
| 2026-05-04 09:26 | 33.61437 | 126.46855 | 38129 ft | 428 kts | 209° |
| 2026-05-04 09:26 | 33.55835 | 126.44430 | 38125 ft | 428 kts | 209° |
| 2026-05-04 09:27 | 33.50232 | 126.42008 | 38130 ft | 428 kts | 209° |
| 2026-05-04 09:27 | 33.44625 | 126.39586 | 38128 ft | 428 kts | 209° |
| 2026-05-04 09:28 | 33.39048 | 126.37189 | 38131 ft | 429 kts | 209° |
| 2026-05-04 09:28 | 33.33426 | 126.34783 | 38125 ft | 429 kts | 209° |
| 2026-05-04 09:29 | 33.27800 | 126.32378 | 38126 ft | 429 kts | 209° |
| 2026-05-04 09:29 | 33.22172 | 126.29975 | 38125 ft | 429 kts | 209° |
| 2026-05-04 09:30 | 33.16555 | 126.27578 | 38130 ft | 428 kts | 209° |
| 2026-05-04 09:30 | 33.10945 | 126.25187 | 38126 ft | 428 kts | 209° |
| 2026-05-04 09:31 | 33.05337 | 126.22800 | 38133 ft | 427 kts | 209° |
| 2026-05-04 09:31 | 32.99745 | 126.20423 | 38123 ft | 427 kts | 209° |
| 2026-05-04 09:32 | 32.94262 | 126.18072 | 38129 ft | 426 kts | 209° |
| 2026-05-04 09:34 | 32.72145 | 126.08590 | 38132 ft | 427 kts | 209° |
| 2026-05-04 09:34 | 32.66564 | 126.06207 | 38136 ft | 426 kts | 209° |
| 2026-05-04 09:35 | 32.60979 | 126.03825 | 38134 ft | 426 kts | 209° |
| 2026-05-04 09:35 | 32.55397 | 126.01447 | 38131 ft | 426 kts | 210° |
| 2026-05-04 09:37 | 32.33139 | 125.92010 | 38136 ft | 425 kts | 210° |
| 2026-05-04 09:38 | 32.27573 | 125.89657 | 38132 ft | 425 kts | 210° |
| 2026-05-04 09:38 | 32.22011 | 125.87310 | 38140 ft | 424 kts | 210° |
| 2026-05-04 09:39 | 32.16450 | 125.84966 | 38140 ft | 424 kts | 210° |
| 2026-05-04 09:39 | 32.10885 | 125.82623 | 38144 ft | 424 kts | 210° |
| 2026-05-04 09:40 | 32.05324 | 125.80285 | 38142 ft | 424 kts | 210° |
| 2026-05-04 09:40 | 31.99762 | 125.77949 | 38144 ft | 424 kts | 210° |
| 2026-05-04 09:42 | 31.77532 | 125.68582 | 38147 ft | 424 kts | 210° |
| 2026-05-04 09:43 | 31.72011 | 125.66264 | 38145 ft | 425 kts | 210° |
| 2026-05-04 09:43 | 31.66446 | 125.63934 | 38152 ft | 425 kts | 210° |
| 2026-05-04 09:44 | 31.60875 | 125.61605 | 38149 ft | 425 kts | 210° |
| 2026-05-04 09:46 | 31.39543 | 125.52697 | 38153 ft | 425 kts | 210° |
| 2026-05-04 09:46 | 31.33977 | 125.50376 | 38149 ft | 425 kts | 210° |
| 2026-05-04 09:47 | 31.28411 | 125.48058 | 38148 ft | 424 kts | 210° |
| 2026-05-04 09:49 | 31.06203 | 125.38837 | 38149 ft | 423 kts | 210° |
| 2026-05-04 09:51 | 30.86823 | 125.30827 | 38147 ft | 422 kts | 210° |
| 2026-05-04 09:51 | 30.81291 | 125.28547 | 38154 ft | 422 kts | 210° |
| 2026-05-04 09:52 | 30.75750 | 125.26266 | 38149 ft | 422 kts | 210° |
| 2026-05-04 09:52 | 30.70250 | 125.24005 | 38151 ft | 422 kts | 210° |
| 2026-05-04 09:53 | 30.64713 | 125.21730 | 38153 ft | 422 kts | 210° |
| 2026-05-04 09:53 | 30.59172 | 125.19458 | 38153 ft | 422 kts | 210° |
| 2026-05-04 09:54 | 30.53632 | 125.17187 | 38159 ft | 423 kts | 210° |
| 2026-05-04 09:54 | 30.48087 | 125.14918 | 38156 ft | 423 kts | 210° |
| 2026-05-04 09:55 | 30.42540 | 125.12642 | 38160 ft | 423 kts | 210° |
| 2026-05-04 09:55 | 30.36993 | 125.10360 | 38152 ft | 423 kts | 210° |
| 2026-05-04 09:56 | 30.31447 | 125.08082 | 38155 ft | 423 kts | 210° |
| 2026-05-04 09:56 | 30.25899 | 125.05806 | 38156 ft | 423 kts | 210° |
| 2026-05-04 09:57 | 30.20349 | 125.03532 | 38157 ft | 423 kts | 210° |
| 2026-05-04 09:57 | 30.14790 | 125.01258 | 38161 ft | 424 kts | 210° |
| 2026-05-04 09:58 | 30.09231 | 124.98986 | 38159 ft | 424 kts | 210° |
| 2026-05-04 09:58 | 30.03665 | 124.96714 | 38159 ft | 424 kts | 210° |
| 2026-05-04 10:00 | 29.81576 | 124.87351 | 38147 ft | 423 kts | 211° |
| 2026-05-04 10:04 | 29.42814 | 124.70893 | 38148 ft | 425 kts | 210° |
| 2026-05-04 10:04 | 29.37259 | 124.68546 | 38147 ft | 426 kts | 210° |
| 2026-05-04 10:05 | 29.31701 | 124.66200 | 38148 ft | 426 kts | 210° |
| 2026-05-04 10:05 | 29.26175 | 124.63870 | 38148 ft | 426 kts | 210° |
| 2026-05-04 10:06 | 29.20608 | 124.61526 | 38154 ft | 426 kts | 210° |
| 2026-05-04 10:06 | 29.15040 | 124.59183 | 38152 ft | 427 kts | 210° |
| 2026-05-04 10:08 | 28.95678 | 124.50705 | 38174 ft | 419 kts | 216° |
| 2026-05-04 10:08 | 28.90738 | 124.47295 | 38162 ft | 411 kts | 222° |
| 2026-05-04 10:09 | 28.86066 | 124.43528 | 38161 ft | 412 kts | 223° |
| 2026-05-04 10:09 | 28.81392 | 124.39756 | 38156 ft | 412 kts | 222° |
| 2026-05-04 10:10 | 28.76696 | 124.35987 | 38164 ft | 413 kts | 222° |
| 2026-05-04 10:10 | 28.71996 | 124.32226 | 38156 ft | 413 kts | 222° |
| 2026-05-04 10:11 | 28.67288 | 124.28464 | 38161 ft | 414 kts | 222° |
| 2026-05-04 10:11 | 28.62572 | 124.24700 | 38157 ft | 414 kts | 222° |
| 2026-05-04 10:12 | 28.57857 | 124.20941 | 38163 ft | 414 kts | 222° |
| 2026-05-04 10:12 | 28.53132 | 124.17179 | 38165 ft | 415 kts | 222° |
| 2026-05-04 10:13 | 28.48405 | 124.13418 | 38163 ft | 415 kts | 222° |
| 2026-05-04 10:13 | 28.43672 | 124.09657 | 38164 ft | 415 kts | 222° |
| 2026-05-04 10:14 | 28.38968 | 124.05923 | 38166 ft | 415 kts | 222° |
| 2026-05-04 10:16 | 28.20107 | 123.90735 | 38163 ft | 416 kts | 222° |
| 2026-05-04 10:16 | 28.15399 | 123.86904 | 38158 ft | 417 kts | 222° |
| 2026-05-04 10:17 | 28.10688 | 123.83079 | 38163 ft | 417 kts | 222° |
| 2026-05-04 10:19 | 27.91745 | 123.67736 | 38171 ft | 420 kts | 222° |
| 2026-05-04 10:19 | 27.87003 | 123.63878 | 38160 ft | 420 kts | 222° |
| 2026-05-04 10:20 | 27.82263 | 123.60020 | 38168 ft | 420 kts | 222° |
| 2026-05-04 10:20 | 27.77514 | 123.56161 | 38164 ft | 421 kts | 222° |
| 2026-05-04 10:21 | 27.72760 | 123.52302 | 38164 ft | 421 kts | 222° |
| 2026-05-04 10:21 | 27.68000 | 123.48443 | 38163 ft | 421 kts | 222° |
| 2026-05-04 10:22 | 27.60849 | 123.42655 | 38161 ft | 422 kts | 222° |
| 2026-05-04 10:23 | 27.56082 | 123.38802 | 38165 ft | 422 kts | 221° |
| 2026-05-04 10:25 | 27.36932 | 123.23363 | 38174 ft | 424 kts | 221° |
| 2026-05-04 10:25 | 27.32127 | 123.19499 | 38165 ft | 425 kts | 221° |
| 2026-05-04 10:26 | 27.27317 | 123.15636 | 38170 ft | 425 kts | 221° |
| 2026-05-04 10:26 | 27.22497 | 123.11769 | 38167 ft | 426 kts | 221° |
| 2026-05-04 10:27 | 27.17673 | 123.07903 | 38180 ft | 426 kts | 221° |
| 2026-05-04 10:27 | 27.12840 | 123.04032 | 38173 ft | 427 kts | 221° |
| 2026-05-04 10:28 | 27.08017 | 123.00176 | 38165 ft | 427 kts | 221° |
| 2026-05-04 10:28 | 27.03168 | 122.96317 | 38167 ft | 428 kts | 221° |
| 2026-05-04 10:29 | 26.98302 | 122.92458 | 38164 ft | 428 kts | 221° |
| 2026-05-04 10:29 | 26.93436 | 122.88599 | 38165 ft | 429 kts | 221° |
| 2026-05-04 10:30 | 26.88564 | 122.84739 | 38166 ft | 429 kts | 221° |
| 2026-05-04 10:30 | 26.83688 | 122.80879 | 38164 ft | 430 kts | 221° |
| 2026-05-04 10:31 | 26.78800 | 122.77014 | 38167 ft | 430 kts | 221° |
| 2026-05-04 10:32 | 26.62472 | 122.64125 | 38157 ft | 432 kts | 221° |
| 2026-05-04 10:33 | 26.57555 | 122.60245 | 38163 ft | 433 kts | 221° |
| 2026-05-04 10:33 | 26.52633 | 122.56366 | 38160 ft | 433 kts | 221° |
| 2026-05-04 10:34 | 26.47704 | 122.52485 | 38159 ft | 433 kts | 220° |
| 2026-05-04 10:34 | 26.42775 | 122.48609 | 38158 ft | 434 kts | 220° |
| 2026-05-04 10:35 | 26.37840 | 122.44732 | 38156 ft | 434 kts | 220° |
| 2026-05-04 10:35 | 26.32898 | 122.40854 | 38156 ft | 434 kts | 220° |
| 2026-05-04 10:36 | 26.27954 | 122.36978 | 38154 ft | 435 kts | 220° |
| 2026-05-04 10:36 | 26.23014 | 122.33109 | 37806 ft | 434 kts | 220° |
| 2026-05-04 10:37 | 26.20537 | 122.31169 | 37172 ft | 433 kts | 220° |
| 2026-05-04 10:37 | 26.18088 | 122.29255 | 36609 ft | 428 kts | 220° |
| 2026-05-04 10:37 | 26.15661 | 122.27358 | 36067 ft | 424 kts | 220° |
| 2026-05-04 10:37 | 26.13254 | 122.25479 | 35501 ft | 421 kts | 219° |
| 2026-05-04 10:39 | 25.99037 | 122.14554 | 32056 ft | 406 kts | 219° |
| 2026-05-04 10:39 | 25.96715 | 122.12772 | 31518 ft | 404 kts | 218° |
| 2026-05-04 10:39 | 25.94409 | 122.11002 | 30986 ft | 402 kts | 218° |
| 2026-05-04 10:40 | 25.92115 | 122.09242 | 30448 ft | 400 kts | 218° |
| 2026-05-04 10:40 | 25.89832 | 122.07491 | 29853 ft | 399 kts | 218° |
| 2026-05-04 10:40 | 25.87554 | 122.05745 | 29261 ft | 397 kts | 218° |
| 2026-05-04 10:40 | 25.85286 | 122.04008 | 28695 ft | 394 kts | 218° |
| 2026-05-04 10:41 | 25.83035 | 122.02285 | 28163 ft | 392 kts | 218° |
| 2026-05-04 10:41 | 25.80800 | 122.00574 | 27619 ft | 390 kts | 219° |
| 2026-05-04 10:41 | 25.78576 | 121.98871 | 27098 ft | 387 kts | 219° |
| 2026-05-04 10:41 | 25.76361 | 121.97177 | 26571 ft | 386 kts | 219° |
| 2026-05-04 10:42 | 25.74156 | 121.95492 | 26057 ft | 384 kts | 219° |
| 2026-05-04 10:42 | 25.71961 | 121.93816 | 25529 ft | 383 kts | 219° |
| 2026-05-04 10:42 | 25.69771 | 121.92151 | 25000 ft | 382 kts | 218° |
| 2026-05-04 10:42 | 25.67620 | 121.90521 | 24954 ft | 368 kts | 219° |
| 2026-05-04 10:43 | 25.65552 | 121.88911 | 24706 ft | 360 kts | 223° |
| 2026-05-04 10:44 | 25.56803 | 121.73314 | 21861 ft | 331 kts | 242° |
| 2026-05-04 10:45 | 25.55667 | 121.71105 | 21470 ft | 329 kts | 242° |
| 2026-05-04 10:45 | 25.54539 | 121.68911 | 21070 ft | 326 kts | 242° |
| 2026-05-04 10:45 | 25.53421 | 121.66736 | 20685 ft | 324 kts | 242° |
| 2026-05-04 10:45 | 25.52311 | 121.64576 | 20302 ft | 321 kts | 242° |
| 2026-05-04 10:46 | 25.51211 | 121.62438 | 19935 ft | 319 kts | 242° |
| 2026-05-04 10:46 | 25.50115 | 121.60308 | 19567 ft | 317 kts | 242° |
| 2026-05-04 10:46 | 25.49012 | 121.58249 | 19206 ft | 315 kts | 238° |
| 2026-05-04 10:46 | 25.47711 | 121.56263 | 18841 ft | 314 kts | 233° |
| 2026-05-04 10:47 | 25.46298 | 121.54429 | 18470 ft | 313 kts | 232° |
| 2026-05-04 10:47 | 25.44874 | 121.52623 | 18062 ft | 311 kts | 232° |
| 2026-05-04 10:47 | 25.43475 | 121.50846 | 17663 ft | 309 kts | 232° |
| 2026-05-04 10:47 | 25.42075 | 121.49057 | 17240 ft | 307 kts | 232° |
| 2026-05-04 10:49 | 25.32465 | 121.36782 | 14560 ft | 297 kts | 232° |
| 2026-05-04 10:49 | 25.31119 | 121.35065 | 14217 ft | 295 kts | 232° |
| 2026-05-04 10:50 | 25.29778 | 121.33354 | 13840 ft | 294 kts | 232° |
| 2026-05-04 10:51 | 25.21008 | 121.22185 | 11801 ft | 257 kts | 232° |
| 2026-05-04 10:52 | 25.19837 | 121.20693 | 11464 ft | 257 kts | 232° |
| 2026-05-04 10:52 | 25.18671 | 121.19209 | 11230 ft | 254 kts | 232° |
| 2026-05-04 10:52 | 25.17518 | 121.17742 | 10923 ft | 253 kts | 232° |
| 2026-05-04 10:54 | 25.09585 | 121.07667 | 9249 ft | 231 kts | 232° |
| 2026-05-04 10:54 | 25.08546 | 121.06347 | 9070 ft | 225 kts | 231° |
| 2026-05-04 10:56 | 25.01646 | 121.00527 | 6204 ft | 191 kts | 158° |
| 2026-05-04 10:56 | 25.00596 | 121.01471 | 5628 ft | 197 kts | 140° |
| 2026-05-04 10:56 | 24.99641 | 121.02500 | 5261 ft | 187 kts | 141° |
| 2026-05-04 10:57 | 24.98720 | 121.03479 | 4879 ft | 180 kts | 141° |
| 2026-05-04 10:57 | 24.97833 | 121.04419 | 4444 ft | 176 kts | 141° |
| 2026-05-04 10:57 | 24.96954 | 121.05347 | 3941 ft | 175 kts | 141° |
| 2026-05-04 10:57 | 24.96084 | 121.06279 | 3519 ft | 174 kts | 136° |
| 2026-05-04 10:58 | 24.95615 | 121.07502 | 3272 ft | 184 kts | 90° |
| 2026-05-04 10:58 | 24.96007 | 121.08849 | 3127 ft | 190 kts | 58° |
| 2026-05-04 10:58 | 24.96725 | 121.10075 | 2864 ft | 188 kts | 54° |
| 2026-05-04 10:58 | 24.97424 | 121.11211 | 2614 ft | 170 kts | 50° |
| 2026-05-04 10:59 | 24.98127 | 121.12195 | 2591 ft | 165 kts | 46° |
| 2026-05-04 10:59 | 24.98885 | 121.13181 | 2390 ft | 170 kts | 45° |
| 2026-05-04 10:59 | 24.99650 | 121.14159 | 2174 ft | 166 kts | 45° |
| 2026-05-04 10:59 | 25.00391 | 121.15104 | 1955 ft | 159 kts | 44° |
| 2026-05-04 11:00 | 25.01112 | 121.16022 | 1759 ft | 159 kts | 43° |
| 2026-05-04 11:01 | 25.05124 | 121.21133 | 452 ft | 131 kts | 53° |
| 2026-05-04 11:02 | 25.05741 | 121.21914 | 278 ft | 137 kts | 53° |
| 2026-05-04 11:02 | 25.06368 | 121.22708 | 108 ft | 134 kts | 53° |
| 2026-05-04 11:05 | 25.07875 | 121.24269 | 106 ft | 5 kts | 332° |
| 2026-05-04 11:06 | 25.07910 | 121.24243 | 107 ft | 7 kts | 323° |
| 2026-05-04 11:06 | 25.07947 | 121.24209 | 107 ft | 7 kts | 319° |
| 2026-05-04 11:06 | 25.07984 | 121.24166 | 107 ft | 8 kts | 297° |
| 2026-05-04 11:06 | 25.07969 | 121.24109 | 107 ft | 8 kts | 233° |
| 2026-05-04 11:08 | 25.07691 | 121.23750 | 107 ft | 12 kts | 229° |
| 2026-05-04 11:10 | 25.07667 | 121.23572 | 108 ft | 1 kts | 319° |
| 2026-05-04 11:12 | 25.07688 | 121.23552 | 108 ft | 0 kts | 319° |